Time;durP1;ratioP1;P1;durP2;ratioP2;P2;SDS_P1;SDS_P2;PMS_P1;PMS_P2;Temp;Humidity;BMP_temperature;BMP_pressure;BME280_temperature;BME280_humidity;BME280_pressure;Samples;Min_cycle;Max_cycle;Signal;HPM_P1;HPM_P2
2022/11/10 00:00:09;;;;;;;31.52;21.50;;;15.90;94.80;;;;;;5020177;28;20032;-81
2022/11/10 00:02:35;;;;;;;27.98;19.23;;;15.80;92.10;;;;;;5012418;28;20022;-81
2022/11/10 00:05:01;;;;;;;30.67;19.40;;;15.90;87.00;;;;;;5027275;28;20400;-80
2022/11/10 00:07:27;;;;;;;30.25;20.25;;;15.80;86.60;;;;;;5052464;28;20084;-81
2022/11/10 00:09:53;;;;;;;32.78;20.60;;;15.80;87.10;;;;;;5027748;28;20299;-81
2022/11/10 00:12:21;;;;;;;31.45;20.98;;;15.90;87.10;;;;;;5029502;28;20454;-80
2022/11/10 00:17:34;;;;;;;35.35;24.02;;;15.70;86.40;;;;;;5038748;28;20096;-81
2022/11/10 00:20:00;;;;;;;36.58;22.52;;;15.60;87.00;;;;;;5015524;28;20034;-81
2022/11/10 00:22:26;;;;;;;29.60;19.48;;;15.60;87.80;;;;;;5061909;28;20569;-80
2022/11/10 00:24:52;;;;;;;36.50;23.83;;;;;;;;;;5024840;28;20025;-80
2022/11/10 00:27:18;;;;;;;30.05;20.92;;;;;;;;;;5030744;28;20056;-79
2022/11/10 00:29:44;;;;;;;27.92;19.02;;;;;;;;;;5019359;28;20048;-82
2022/11/10 00:32:10;;;;;;;28.60;19.27;;;;;;;;;;5027597;28;20026;-81
2022/11/10 00:34:36;;;;;;;30.02;20.92;;;;;;;;;;5049105;28;20033;-80
2022/11/10 00:37:02;;;;;;;35.13;21.70;;;;;;;;;;5028663;28;20029;-80
2022/11/10 00:39:28;;;;;;;30.13;21.02;;;15.70;99.90;;;;;;5029296;28;20061;-79
2022/11/10 00:41:54;;;;;;;29.63;20.88;;;;;;;;;;5014376;28;20093;-80
2022/11/10 00:44:20;;;;;;;27.35;19.70;;;;;;;;;;5064834;28;20037;-79
2022/11/10 00:46:46;;;;;;;29.13;19.58;;;;;;;;;;5041317;28;20149;-78
2022/11/10 00:49:12;;;;;;;27.77;19.75;;;;;;;;;;5023711;28;20405;-79
2022/11/10 00:51:38;;;;;;;30.83;20.85;;;;;;;;;;5050420;28;20430;-80
2022/11/10 00:54:04;;;;;;;28.92;19.90;;;15.70;86.80;;;;;;5029195;28;20068;-79
2022/11/10 00:56:30;;;;;;;29.85;21.23;;;;;;;;;;5029382;28;20061;-79
2022/11/10 00:58:56;;;;;;;28.15;19.48;;;;;;;;;;5020641;28;20116;-79
2022/11/10 01:01:23;;;;;;;29.50;20.95;;;;;;;;;;5015207;28;20030;-79
2022/11/10 01:03:49;;;;;;;28.58;20.23;;;;;;;;;;5028330;28;20113;-81
2022/11/10 01:06:17;;;;;;;31.52;20.27;;;;;;;;;;5031806;28;20036;-80
2022/11/10 01:08:43;;;;;;;29.52;20.48;;;;;;;;;;5018526;28;20041;-81
2022/11/10 01:11:10;;;;;;;28.88;20.73;;;;;;;;;;5026151;28;20109;-82
2022/11/10 01:13:36;;;;;;;37.88;26.20;;;;;;;;;;5062494;28;20083;-80
2022/11/10 01:16:11;;;;;;;32.60;22.60;;;15.70;86.90;;;;;;5065004;28;20474;-80
2022/11/10 01:18:37;;;;;;;32.63;20.60;;;15.70;86.80;;;;;;5063869;28;20528;-80
2022/11/10 01:21:04;;;;;;;30.70;21.00;;;15.60;87.80;;;;;;5019902;28;20026;-74
2022/11/10 01:23:30;;;;;;;33.03;21.50;;;;;;;;;;5018489;28;20049;-74
2022/11/10 01:26:01;;;;;;;29.45;20.90;;;15.60;87.80;;;;;;5033865;28;20128;-74
2022/11/10 01:28:27;;;;;;;33.47;23.17;;;15.70;94.90;;;;;;5019999;28;20103;-73
2022/11/10 01:31:00;;;;;;;33.47;21.58;;;15.70;88.60;;;;;;5028619;28;20038;-74
2022/11/10 01:33:26;;;;;;;33.65;21.38;;;15.70;88.50;;;;;;5024854;28;20378;-73
2022/11/10 01:35:53;;;;;;;28.63;21.17;;;;;;;;;;5034691;28;20120;-73
2022/11/10 01:38:19;;;;;;;38.97;25.45;;;15.70;88.70;;;;;;5028331;28;20092;-80
2022/11/10 01:40:45;;;;;;;36.20;22.65;;;;;;;;;;5066374;28;20458;-80
2022/11/10 01:43:11;;;;;;;31.13;22.98;;;;;;;;;;5062205;28;20450;-81
2022/11/10 01:46:08;;;;;;;34.80;21.95;;;15.70;88.70;;;;;;5046460;28;20025;-80
2022/11/10 01:49:01;;;;;;;31.60;20.50;;;15.70;89.50;;;;;;5018494;28;20061;-80
2022/11/10 01:51:30;;;;;;;31.08;21.50;;;15.60;89.60;;;;;;5021735;28;20117;-79
2022/11/10 01:53:59;;;;;;;29.75;21.08;;;;;;;;;;5032336;28;20037;-80
2022/11/10 01:56:55;;;;;;;28.98;19.88;;;15.60;89.80;;;;;;5066611;28;20450;-80
2022/11/10 01:59:26;;;;;;;33.92;21.85;;;15.60;90.00;;;;;;5049427;28;20029;-79
2022/11/10 02:01:57;;;;;;;32.38;21.63;;;15.60;90.20;;;;;;5037687;28;20044;-80
2022/11/10 02:04:24;;;;;;;29.70;21.48;;;15.50;90.20;;;;;;5055825;28;20393;-80
2022/11/10 02:06:50;;;;;;;33.10;22.17;;;15.50;90.40;;;;;;5030386;28;20052;-81
2022/11/10 02:09:16;;;;;;;32.33;22.70;;;15.40;90.30;;;;;;5039621;28;20033;-78
2022/11/10 02:11:44;;;;;;;31.50;20.80;;;15.40;90.40;;;;;;5039313;28;20033;-80
2022/11/10 02:14:10;;;;;;;31.80;20.63;;;15.40;90.60;;;;;;5061471;28;20041;-79
2022/11/10 02:16:36;;;;;;;32.30;21.92;;;15.40;90.50;;;;;;5047229;28;20029;-80
2022/11/10 02:19:16;;;;;;;32.35;21.58;;;15.40;90.50;;;;;;5050304;28;20461;-79
2022/11/10 02:21:41;;;;;;;29.87;21.27;;;15.40;90.60;;;;;;5049625;28;20121;-80
2022/11/10 02:24:08;;;;;;;33.45;22.13;;;15.50;98.30;;;;;;5050142;28;20363;-80
2022/11/10 02:26:35;;;;;;;33.67;22.10;;;15.50;90.70;;;;;;5031464;28;20479;-80
2022/11/10 02:29:01;;;;;;;28.90;19.42;;;15.50;90.80;;;;;;5059613;28;20038;-80
2022/11/10 02:31:26;;;;;;;30.23;21.15;;;15.50;90.80;;;;;;5038185;28;20382;-81
2022/11/10 02:33:52;;;;;;;31.00;20.80;;;15.60;90.90;;;;;;5051448;28;20498;-82
2022/11/10 02:38:48;;;;;;;32.35;22.48;;;15.60;90.80;;;;;;5095255;27;20404;-82
2022/11/10 02:41:14;;;;;;;30.08;21.10;;;15.60;91.20;;;;;;5104437;28;20089;-81
2022/11/10 02:43:40;;;;;;;31.85;21.70;;;15.60;91.30;;;;;;5088462;28;20020;-79
2022/11/10 02:46:05;;;;;;;31.23;20.90;;;15.60;91.40;;;;;;5092710;28;20028;-80
2022/11/10 02:48:31;;;;;;;39.72;26.92;;;15.60;91.50;;;;;;5087328;28;20032;-82
2022/11/10 02:50:58;;;;;;;31.13;22.35;;;15.30;92.00;;;;;;5097125;28;20134;-81
2022/11/10 02:53:25;;;;;;;30.08;21.83;;;15.30;91.90;;;;;;5090485;28;20500;-81
2022/11/10 02:55:51;;;;;;;29.83;19.98;;;15.20;92.10;;;;;;5100081;28;20046;-80
2022/11/10 02:58:16;;;;;;;29.63;20.92;;;15.10;92.30;;;;;;5093866;28;20422;-80
2022/11/10 03:00:42;;;;;;;30.08;21.10;;;15.20;92.20;;;;;;5104921;28;20028;-81
2022/11/10 03:03:08;;;;;;;30.33;21.60;;;15.20;92.30;;;;;;5088568;28;20021;-80
2022/11/10 03:05:33;;;;;;;28.65;20.02;;;15.20;92.50;;;;;;5089786;28;20025;-80
2022/11/10 03:08:00;;;;;;;30.92;21.52;;;15.30;92.50;;;;;;5089265;28;20476;-80
2022/11/10 03:10:28;;;;;;;33.15;22.50;;;15.30;92.50;;;;;;5090330;28;20097;-80
2022/11/10 03:12:55;;;;;;;34.13;23.65;;;15.40;92.50;;;;;;5087431;28;20077;-80
2022/11/10 03:15:21;;;;;;;30.83;21.90;;;15.40;92.60;;;;;;5088106;28;20052;-80
2022/11/10 03:17:47;;;;;;;33.58;23.50;;;15.40;92.60;;;;;;5087720;28;20036;-81
2022/11/10 03:20:13;;;;;;;30.30;21.50;;;15.40;92.60;;;;;;5089984;28;20025;-80
2022/11/10 03:22:39;;;;;;;30.23;21.63;;;15.40;92.60;;;;;;5096151;28;20111;-79
2022/11/10 03:25:05;;;;;;;32.10;21.77;;;15.40;92.70;;;;;;5097774;28;20512;-79
2022/11/10 03:27:31;;;;;;;31.85;23.27;;;15.40;92.70;;;;;;5097153;28;20062;-79
2022/11/10 03:29:57;;;;;;;33.60;22.60;;;15.40;92.60;;;;;;5104849;28;20423;-79
2022/11/10 03:32:22;;;;;;;37.00;23.10;;;15.40;92.80;;;;;;5087798;28;20025;-80
2022/11/10 03:34:48;;;;;;;35.80;23.17;;;15.40;92.80;;;;;;5089215;28;20032;-80
2022/11/10 03:37:14;;;;;;;32.72;23.27;;;15.50;92.80;;;;;;5087975;28;20040;-79
2022/11/10 03:39:40;;;;;;;34.72;24.65;;;15.50;92.90;;;;;;5092299;28;20040;-79
2022/11/10 03:42:05;;;;;;;31.98;22.02;;;15.50;92.90;;;;;;5089272;28;20032;-79
2022/11/10 03:44:31;;;;;;;34.10;23.70;;;15.50;92.90;;;;;;5089695;28;20064;-79
2022/11/10 03:46:56;;;;;;;29.75;21.70;;;15.50;92.90;;;;;;5100976;28;20024;-78
2022/11/10 03:49:22;;;;;;;32.70;23.50;;;15.50;93.00;;;;;;5089963;28;20020;-79
2022/11/10 03:51:48;;;;;;;34.15;23.98;;;15.50;93.00;;;;;;5080814;28;20368;-78
2022/11/10 03:54:13;;;;;;;35.90;24.58;;;15.50;93.00;;;;;;5077427;28;20029;-78
2022/11/10 03:56:39;;;;;;;32.85;23.73;;;15.50;93.10;;;;;;5089449;28;20116;-77
2022/11/10 03:59:05;;;;;;;32.50;23.45;;;15.50;93.10;;;;;;5074298;28;20534;-79
2022/11/10 04:01:30;;;;;;;38.80;25.83;;;15.50;93.10;;;;;;5081055;28;20048;-77
2022/11/10 04:03:56;;;;;;;35.75;25.02;;;15.50;93.20;;;;;;5076875;28;20461;-76
2022/11/10 04:09:07;;;;;;;39.13;28.50;;;15.30;93.60;;;;;;5083353;28;20585;-76
2022/11/10 04:17:02;;;;;;;33.05;24.05;;;15.00;94.20;;;;;;5076393;28;20503;-79
2022/11/10 04:19:33;;;;;;;35.78;26.33;;;15.00;94.10;;;;;;5077041;28;20127;-78
2022/11/10 04:21:59;;;;;;;37.78;26.60;;;15.00;94.40;;;;;;5080147;28;20103;-79
2022/11/10 04:24:25;;;;;;;38.05;27.20;;;15.00;94.60;;;;;;5073800;28;20111;-79
2022/11/10 04:26:50;;;;;;;32.45;24.55;;;14.90;94.70;;;;;;5084432;28;20034;-79
2022/11/10 04:29:18;;;;;;;37.30;26.60;;;14.90;94.60;;;;;;5084171;28;20086;-79
2022/11/10 04:31:44;;;;;;;38.88;25.52;;;15.00;94.60;;;;;;5074489;28;20037;-79
2022/11/10 04:34:12;;;;;;;36.13;26.55;;;15.00;94.50;;;;;;5075566;28;20090;-79
2022/11/10 04:36:40;;;;;;;37.33;26.30;;;15.00;94.60;;;;;;5090419;28;20490;-78
2022/11/10 04:39:06;;;;;;;54.10;34.90;;;15.00;94.50;;;;;;5087498;28;20030;-77
2022/11/10 04:41:32;;;;;;;37.50;27.80;;;15.00;95.00;;;;;;5081099;28;20469;-78
2022/11/10 04:43:59;;;;;;;39.08;27.73;;;15.00;94.90;;;;;;5076552;28;20048;-79
2022/11/10 04:46:38;;;;;;;44.53;30.50;;;15.00;95.00;;;;;;5072907;28;20469;-79
2022/11/10 04:49:06;;;;;;;39.65;26.38;;;14.90;95.50;;;;;;5075567;28;20031;-80
2022/11/10 04:51:37;;;;;;;35.33;25.67;;;14.90;95.10;;;;;;5078147;28;20024;-78
2022/11/10 04:54:04;;;;;;;34.53;25.92;;;14.90;95.10;;;;;;5073106;28;20055;-79
2022/11/10 04:56:30;;;;;;;39.70;26.42;;;15.00;95.10;;;;;;5072830;28;20052;-79
2022/11/10 04:58:56;;;;;;;37.88;27.27;;;15.10;95.10;;;;;;5079687;28;20388;-79
2022/11/10 05:01:25;;;;;;;37.88;28.40;;;15.10;95.20;;;;;;5080715;28;20365;-80
2022/11/10 05:03:53;;;;;;;40.05;29.05;;;15.10;95.20;;;;;;5074736;28;20024;-80
2022/11/10 05:06:19;;;;;;;40.00;28.75;;;15.10;95.30;;;;;;5085141;28;20025;-81
2022/11/10 05:08:46;;;;;;;36.15;27.02;;;15.00;95.50;;;;;;5078352;28;20157;-80
2022/11/10 05:11:12;;;;;;;46.92;32.97;;;15.00;95.50;;;;;;5083874;28;20028;-78
2022/11/10 05:13:38;;;;;;;42.85;31.80;;;14.90;95.90;;;;;;5073693;28;20032;-78
2022/11/10 05:16:05;;;;;;;35.83;26.17;;;14.80;96.10;;;;;;5077903;28;20032;-80
2022/11/10 05:18:31;;;;;;;34.72;26.10;;;14.80;96.10;;;;;;5076220;28;20036;-79
2022/11/10 05:20:56;;;;;;;37.63;27.33;;;14.80;95.90;;;;;;5085368;28;20028;-81
2022/11/10 05:23:37;;;;;;;35.08;25.27;;;14.90;95.80;;;;;;5072978;28;20506;-79
2022/11/10 05:26:15;;;;;;;38.47;26.60;;;14.90;95.80;;;;;;5071633;28;20457;-78
2022/11/10 05:28:42;;;;;;;42.22;28.50;;;14.90;96.20;;;;;;5077060;28;20043;-76
2022/11/10 05:31:08;;;;;;;38.72;27.48;;;14.90;96.30;;;;;;5083395;28;20028;-83
2022/11/10 05:33:35;;;;;;;52.10;36.40;;;14.90;96.10;;;;;;5077720;28;20408;-83
2022/11/10 05:36:01;;;;;;;52.92;37.22;;;14.90;96.50;;;;;;5061716;28;20120;-82
2022/11/10 05:38:26;;;;;;;44.60;31.63;;;14.80;96.40;;;;;;5070298;28;20431;-82
2022/11/10 05:40:52;;;;;;;39.72;28.75;;;14.80;96.40;;;;;;5073610;28;20025;-82
2022/11/10 05:43:18;;;;;;;36.15;27.30;;;14.80;96.60;;;;;;5079031;28;20074;-82
2022/11/10 05:45:44;;;;;;;39.60;28.45;;;14.90;96.30;;;;;;5073760;28;20078;-83
2022/11/10 05:48:10;;;;;;;52.28;35.63;;;14.90;96.30;;;;;;5076760;28;20078;-81
2022/11/10 05:50:36;;;;;;;42.20;30.23;;;14.90;96.70;;;;;;5076294;28;20048;-81
2022/11/10 05:53:01;;;;;;;44.47;31.98;;;14.90;96.80;;;;;;5082649;28;20477;-81
2022/11/10 05:55:28;;;;;;;38.92;27.85;;;14.90;96.80;;;;;;5071723;28;20040;-83
2022/11/10 05:57:56;;;;;;;39.45;27.55;;;14.90;96.40;;;;;;5072359;28;20033;-81
2022/11/10 06:00:25;;;;;;;45.90;30.75;;;14.90;96.60;;;;;;5076534;28;20388;-83
2022/11/10 06:03:02;;;;;;;39.63;27.88;;;14.90;96.80;;;;;;5073754;28;20055;-87
2022/11/10 06:05:29;;;;;;;42.72;30.13;;;14.90;96.80;;;;;;5058113;28;20066;-93
2022/11/10 06:07:56;;;;;;;39.53;28.10;;;14.90;96.80;;;;;;5074150;28;20055;-89
2022/11/10 06:10:22;;;;;;;39.17;29.08;;;14.90;96.70;;;;;;5085138;28;20032;-88
2022/11/10 06:12:48;;;;;;;40.80;28.45;;;14.90;96.90;;;;;;5074061;28;20548;-89
2022/11/10 06:15:14;;;;;;;39.42;27.95;;;14.90;96.80;;;;;;5075603;28;20037;-88
2022/11/10 06:17:40;;;;;;;38.80;27.58;;;14.90;96.90;;;;;;5084119;28;20023;-89
2022/11/10 06:20:07;;;;;;;50.10;34.13;;;14.90;96.70;;;;;;5087774;28;20055;-87
2022/11/10 06:22:33;;;;;;;40.30;30.08;;;14.90;97.10;;;;;;5105492;28;20501;-89
2022/11/10 06:24:58;;;;;;;38.17;27.42;;;14.90;96.90;;;;;;5073810;28;20020;-89
2022/11/10 06:27:24;;;;;;;41.65;29.60;;;15.00;96.80;;;;;;5073892;28;20387;-88
2022/11/10 06:29:53;;;;;;;40.50;28.60;;;14.90;97.20;;;;;;5086849;28;20555;-93
2022/11/10 06:32:19;;;;;;;50.95;35.78;;;14.90;97.10;;;;;;5072863;28;20145;-91
2022/11/10 06:34:45;;;;;;;43.50;29.92;;;14.90;97.30;;;;;;5106067;28;20021;-82
2022/11/10 06:37:11;;;;;;;42.55;31.45;;;14.90;97.10;;;;;;5072300;28;20534;-87
2022/11/10 06:39:36;;;;;;;39.35;27.80;;;14.80;97.40;;;;;;5069984;28;20070;-89
2022/11/10 06:42:02;;;;;;;43.60;30.58;;;14.80;97.50;;;;;;5069837;28;20099;-88
2022/11/10 06:44:28;;;;;;;40.30;29.35;;;14.70;97.90;;;;;;5074764;28;20499;-88
2022/11/10 06:46:53;;;;;;;44.03;31.73;;;14.70;98.00;;;;;;5079107;28;20530;-88
2022/11/10 06:49:19;;;;;;;44.10;30.15;;;14.70;98.00;;;;;;5073884;28;20103;-88
2022/11/10 06:51:45;;;;;;;40.45;28.15;;;14.70;98.00;;;;;;5072365;28;20415;-88
2022/11/10 06:54:11;;;;;;;40.97;31.05;;;14.80;97.90;;;;;;5074396;28;20396;-87
2022/11/10 06:56:36;;;;;;;39.80;28.45;;;14.80;97.90;;;;;;5077508;28;20051;-81
2022/11/10 06:59:02;;;;;;;39.78;27.27;;;14.80;97.90;;;;;;5076403;28;20028;-80
2022/11/10 07:01:28;;;;;;;38.15;30.15;;;14.80;97.90;;;;;;5072860;28;20070;-81
2022/11/10 07:03:54;;;;;;;35.90;25.55;;;14.80;98.00;;;;;;5072382;28;20025;-82
2022/11/10 07:06:20;;;;;;;45.53;31.75;;;14.90;97.80;;;;;;5085657;28;20024;-88
2022/11/10 07:08:47;;;;;;;49.42;34.00;;;14.90;97.70;;;;;;5093177;28;20031;-88
2022/11/10 07:11:12;;;;;;;38.97;27.92;;;14.90;98.00;;;;;;5093492;28;20024;-89
2022/11/10 07:13:38;;;;;;;34.72;26.67;;;14.80;98.10;;;;;;5093290;28;20031;-89
2022/11/10 07:16:06;;;;;;;38.47;27.55;;;14.90;97.80;;;;;;5092517;28;20430;-90
2022/11/10 07:18:32;;;;;;;44.92;33.10;;;14.90;97.90;;;;;;5072521;28;20096;-89
2022/11/10 07:20:58;;;;;;;37.55;27.73;;;14.90;98.00;;;;;;5072141;28;20481;-88
2022/11/10 07:23:23;;;;;;;45.78;32.00;;;14.90;98.00;;;;;;5071486;28;20076;-89
2022/11/10 07:25:49;;;;;;;46.40;31.65;;;14.90;98.00;;;;;;5082485;28;20032;-89
2022/11/10 07:28:15;;;;;;;31.20;24.17;;;14.80;98.60;;;;;;5096552;28;20016;-88
2022/11/10 07:30:40;;;;;;;30.98;23.42;;;14.90;98.20;;;;;;5082122;28;20041;-88
2022/11/10 07:33:12;;;;;;;45.42;31.05;;;14.90;98.10;;;;;;5076241;28;20025;-88
2022/11/10 07:35:38;;;;;;;40.05;27.42;;;14.90;98.30;;;;;;5075934;28;20424;-87
2022/11/10 07:38:07;;;;;;;37.25;28.42;;;14.90;98.30;;;;;;5087022;28;20115;-88
2022/11/10 07:40:33;;;;;;;39.50;27.52;;;14.90;98.30;;;;;;5075650;28;20020;-89
2022/11/10 07:42:59;;;;;;;39.08;28.85;;;14.90;98.40;;;;;;5075461;28;20462;-89
2022/11/10 07:45:25;;;;;;;30.10;23.23;;;14.90;98.50;;;;;;5075495;28;20167;-88
2022/11/10 07:47:57;;;;;;;40.03;27.67;;;14.90;98.60;;;;;;5075173;28;20389;-83
2022/11/10 07:50:22;;;;;;;38.45;28.58;;;14.90;98.60;;;;;;5073038;28;20020;-83
2022/11/10 07:52:48;;;;;;;46.60;32.90;;;14.90;98.80;;;;;;5075250;28;20377;-83
2022/11/10 07:55:14;;;;;;;34.45;24.75;;;14.90;98.70;;;;;;5075062;28;20107;-88
2022/11/10 07:57:39;;;;;;;29.88;22.48;;;14.90;98.90;;;;;;5076375;28;20406;-88
2022/11/10 08:00:06;;;;;;;35.65;26.08;;;15.00;98.60;;;;;;5087221;28;20111;-88
2022/11/10 08:02:31;;;;;;;39.90;28.33;;;15.10;98.60;;;;;;5077826;28;20080;-89
2022/11/10 08:04:57;;;;;;;35.65;26.27;;;15.00;98.70;;;;;;5075903;28;20016;-90
2022/11/10 08:07:23;;;;;;;34.38;24.48;;;15.10;98.50;;;;;;5076131;28;20031;-91
2022/11/10 08:09:49;;;;;;;29.42;22.58;;;15.10;98.50;;;;;;5081097;28;20024;-91
2022/11/10 08:12:15;;;;;;;35.47;24.80;;;15.10;98.50;;;;;;5092529;28;20400;-92
2022/11/10 08:14:40;;;;;;;44.03;30.27;;;15.10;98.50;;;;;;5075607;28;20074;-92
2022/11/10 08:17:06;;;;;;;35.33;24.63;;;15.10;98.50;;;;;;5075791;28;20028;-91
2022/11/10 08:19:32;;;;;;;39.85;29.92;;;15.10;98.60;;;;;;5091236;28;20082;-92
2022/11/10 08:21:57;;;;;;;32.55;24.00;;;15.10;98.60;;;;;;5075693;28;20021;-91
2022/11/10 08:24:23;;;;;;;43.60;30.88;;;15.20;98.50;;;;;;5075817;28;20020;-88
2022/11/10 08:26:49;;;;;;;41.28;30.52;;;15.10;98.60;;;;;;5067654;28;20481;-90
2022/11/10 08:29:14;;;;;;;39.60;29.30;;;15.10;98.70;;;;;;5075565;28;20768;-90
2022/11/10 08:31:40;;;;;;;32.35;22.75;;;15.10;98.90;;;;;;5073607;28;20025;-90
2022/11/10 08:34:06;;;;;;;44.95;31.40;;;15.10;98.80;;;;;;5074531;28;20034;-91
2022/11/10 08:36:32;;;;;;;44.53;29.38;;;15.00;99.20;;;;;;5074625;28;20021;-91
2022/11/10 08:38:57;;;;;;;30.80;23.15;;;15.00;99.70;;;;;;5074452;28;20032;-91
2022/11/10 08:41:23;;;;;;;31.83;22.67;;;15.10;99.40;;;;;;5074832;28;20017;-90
2022/11/10 08:43:48;;;;;;;31.05;22.70;;;15.10;99.50;;;;;;5074687;28;20035;-90
2022/11/10 08:46:14;;;;;;;31.25;22.63;;;15.10;99.40;;;;;;5074542;28;20024;-90
2022/11/10 08:48:40;;;;;;;39.50;29.38;;;15.20;99.30;;;;;;5074597;28;20055;-90
2022/11/10 08:51:05;;;;;;;31.48;23.70;;;15.20;99.20;;;;;;5074433;28;20035;-89
2022/11/10 08:53:31;;;;;;;27.33;21.60;;;15.20;99.20;;;;;;5074424;28;20059;-88
2022/11/10 08:56:00;;;;;;;29.77;21.65;;;15.20;99.20;;;;;;5074413;28;20028;-90
2022/11/10 08:58:26;;;;;;;30.08;19.88;;;15.30;99.00;;;;;;5092082;28;20031;-89
2022/11/10 09:00:52;;;;;;;32.78;23.05;;;15.30;98.90;;;;;;5089768;28;20028;-87
2022/11/10 09:03:20;;;;;;;30.02;21.65;;;15.30;98.90;;;;;;5086795;28;20058;-87
2022/11/10 09:05:47;;;;;;;33.42;24.13;;;15.40;99.00;;;;;;5087551;28;20039;-84
2022/11/10 09:08:13;;;;;;;36.55;26.65;;;15.40;98.80;;;;;;5084658;28;20032;-89
2022/11/10 09:10:44;;;;;;;35.75;24.95;;;15.40;98.90;;;;;;5094319;28;20095;-88
2022/11/10 09:13:12;;;;;;;41.20;27.90;;;15.40;99.10;;;;;;5094740;28;20028;-88
2022/11/10 09:15:38;;;;;;;34.00;22.58;;;15.30;99.20;;;;;;5094322;28;20425;-89
2022/11/10 09:18:05;;;;;;;39.28;26.42;;;15.40;99.40;;;;;;5094603;28;20154;-89
2022/11/10 09:20:33;;;;;;;26.17;19.70;;;15.30;99.40;;;;;;5094766;28;20024;-89
2022/11/10 09:23:05;;;;;;;24.67;19.55;;;15.40;99.50;;;;;;5093118;28;20128;-88
2022/11/10 09:25:31;;;;;;;24.55;17.73;;;15.50;99.10;;;;;;5088715;28;20035;-89
2022/11/10 09:27:57;;;;;;;27.17;19.75;;;15.70;99.00;;;;;;5074787;28;20029;-89
2022/11/10 09:30:24;;;;;;;28.15;20.77;;;15.80;98.80;;;;;;5086447;28;20043;-90
2022/11/10 09:32:57;;;;;;;27.27;18.73;;;15.90;98.70;;;;;;5071324;28;20028;-90
2022/11/10 09:35:23;;;;;;;36.20;24.25;;;16.00;98.50;;;;;;5074641;28;20029;-91
2022/11/10 09:37:49;;;;;;;29.08;20.63;;;15.90;98.60;;;;;;5072004;28;20049;-90
2022/11/10 09:40:33;;;;;;;28.63;21.13;;;15.90;98.60;;;;;;5074306;28;20026;-90
2022/11/10 09:43:00;;;;;;;31.65;23.45;;;15.80;98.70;;;;;;5073665;28;20055;-91
2022/11/10 09:45:31;;;;;;;23.70;17.60;;;15.80;98.50;;;;;;5073515;28;20096;-90
2022/11/10 09:48:00;;;;;;;;;;;15.80;98.70;;;;;;5073766;28;20035;-90
2022/11/10 09:50:32;;;;;;;28.87;22.70;;;15.90;98.70;;;;;;5073397;28;19954;-89
2022/11/10 09:52:59;;;;;;;30.70;21.73;;;15.80;98.90;;;;;;5071523;28;20669;-91
2022/11/10 09:55:47;;;;;;;22.30;16.65;;;15.80;99.10;;;;;;5073454;28;20104;-90
2022/11/10 09:58:14;;;;;;;23.08;17.15;;;15.90;98.80;;;;;;5073169;28;20038;-91
2022/11/10 10:00:45;;;;;;;21.05;16.88;;;16.00;98.60;;;;;;5073513;28;20031;-91
2022/11/10 10:03:18;;;;;;;21.55;16.67;;;16.10;98.40;;;;;;5073429;28;20029;-91
2022/11/10 10:05:50;;;;;;;22.00;16.45;;;16.20;98.20;;;;;;5073388;28;20028;-91
2022/11/10 10:08:34;;;;;;;28.83;20.75;;;16.30;98.00;;;;;;5073599;28;20483;-91
2022/11/10 10:11:26;;;;;;;21.58;16.58;;;16.30;97.80;;;;;;5073280;28;20472;-90
2022/11/10 10:14:21;;;;;;;24.92;19.17;;;16.20;97.90;;;;;;5073106;28;20477;-90
2022/11/10 10:16:55;;;;;;;19.75;14.95;;;16.20;98.00;;;;;;5072721;28;20032;-89
2022/11/10 10:19:48;;;;;;;21.88;16.95;;;16.10;98.10;;;;;;5078087;28;20027;-90
2022/11/10 10:22:14;;;;;;;18.65;14.38;;;16.20;98.00;;;;;;5093325;28;20024;-90
2022/11/10 10:24:40;;;;;;;22.85;16.13;;;16.20;98.10;;;;;;5093189;28;20490;-90
2022/11/10 10:27:16;;;;;;;24.02;18.50;;;16.20;98.30;;;;;;5091693;28;20028;-90
2022/11/10 10:29:48;;;;;;;26.42;20.10;;;16.10;98.40;;;;;;5093384;28;20028;-90
2022/11/10 10:32:15;;;;;;;26.00;20.55;;;16.10;98.60;;;;;;5075475;28;20415;-89
2022/11/10 10:34:42;;;;;;;18.42;13.82;;;16.10;98.60;;;;;;5072832;28;20048;-90
2022/11/10 10:37:31;;;;;;;16.98;14.70;;;16.20;98.70;;;;;;5073176;28;20115;-91
2022/11/10 10:39:57;;;;;;;22.77;16.73;;;16.30;98.70;;;;;;5067509;28;20048;-91
2022/11/10 10:42:34;;;;;;;22.02;16.85;;;16.30;98.60;;;;;;5072645;28;20024;-83
2022/11/10 10:45:27;;;;;;;16.00;13.05;;;16.20;98.60;;;;;;5072940;28;20021;-84
2022/11/10 10:47:55;;;;;;;19.63;15.55;;;16.30;98.50;;;;;;5077454;28;20032;-85
2022/11/10 10:50:33;;;;;;;15.45;12.60;;;16.40;98.30;;;;;;5073203;28;20107;-93
2022/11/10 10:53:13;;;;;;;14.80;11.70;;;16.50;98.20;;;;;;5073187;28;20035;-92
2022/11/10 10:55:58;;;;;;;15.77;12.15;;;16.60;98.00;;;;;;5081992;28;20081;-83
2022/11/10 10:58:30;;;;;;;15.00;11.20;;;16.70;97.80;;;;;;5077513;28;20107;-85
2022/11/10 11:01:17;;;;;;;16.13;11.68;;;16.70;97.70;;;;;;5094940;28;20078;-86
2022/11/10 11:03:50;;;;;;;24.73;14.90;;;16.60;97.70;;;;;;5090116;28;20028;-86
2022/11/10 11:06:16;;;;;;;16.50;13.55;;;16.50;97.70;;;;;;5076132;28;20036;-85
2022/11/10 11:09:27;;;;;;;16.13;14.07;;;16.50;97.90;;;;;;5075824;28;20035;-86
2022/11/10 11:12:11;;;;;;;18.10;13.50;;;16.50;97.90;;;;;;5071739;28;20040;-84
2022/11/10 11:14:37;;;;;;;17.77;13.95;;;16.40;98.00;;;;;;5060449;28;20606;-86
2022/11/10 11:17:11;;;;;;;15.32;11.02;;;16.40;98.20;;;;;;5074112;28;20123;-86
2022/11/10 11:19:37;;;;;;;14.63;10.57;;;16.40;98.10;;;;;;5076168;28;20021;-86
2022/11/10 11:22:27;;;;;;;13.15;10.10;;;16.40;98.00;;;;;;5079159;28;20058;-85
2022/11/10 11:25:14;;;;;;;12.15;10.40;;;16.50;97.90;;;;;;5095546;28;20051;-86
2022/11/10 11:27:48;;;;;;;12.63;10.85;;;16.50;97.80;;;;;;5080312;28;20043;-86
2022/11/10 11:30:22;;;;;;;16.92;12.32;;;16.60;97.90;;;;;;5094405;28;20372;-88
2022/11/10 11:32:48;;;;;;;13.75;11.18;;;16.50;98.00;;;;;;5079672;28;20032;-89
2022/11/10 11:35:30;;;;;;;15.88;10.15;;;16.60;97.90;;;;;;5076131;28;20103;-85
2022/11/10 11:37:58;;;;;;;19.58;14.95;;;16.60;97.70;;;;;;5076036;28;20045;-87
2022/11/10 11:40:33;;;;;;;16.27;12.90;;;16.60;97.70;;;;;;5076007;28;20036;-87
2022/11/10 11:43:35;;;;;;;14.90;12.00;;;16.60;97.90;;;;;;5074423;28;20040;-89
2022/11/10 11:46:29;;;;;;;10.95;9.63;;;16.50;97.90;;;;;;5076282;28;20021;-88
2022/11/10 11:49:03;;;;;;;12.55;10.32;;;16.60;98.00;;;;;;5058769;28;20044;-86
2022/11/10 11:51:47;;;;;;;12.93;10.30;;;16.60;98.00;;;;;;5076331;28;20016;-86
2022/11/10 11:54:25;;;;;;;13.60;10.07;;;16.70;97.90;;;;;;5073492;28;20369;-87
2022/11/10 11:56:53;;;;;;;10.93;9.10;;;16.70;97.80;;;;;;5078109;28;20021;-88
2022/11/10 12:00:14;;;;;;;13.18;9.93;;;16.80;97.60;;;;;;5080453;28;20082;-88
2022/11/10 12:03:05;;;;;;;15.18;12.85;;;16.90;97.50;;;;;;4996364;28;20030;-89
2022/11/10 12:06:02;;;;;;;14.93;12.02;;;16.90;97.30;;;;;;5065935;28;20401;-89
2022/11/10 12:09:03;;;;;;;13.70;10.35;;;16.90;97.10;;;;;;5062643;28;20436;-89
2022/11/10 12:11:29;;;;;;;12.02;9.95;;;16.90;97.20;;;;;;5055393;28;20036;-89
2022/11/10 12:14:26;;;;;;;11.82;9.50;;;16.90;97.30;;;;;;5056732;28;20029;-89
2022/11/10 12:17:35;;;;;;;9.77;8.43;;;17.00;97.10;;;;;;5062668;28;20041;-89
2022/11/10 12:20:13;;;;;;;10.23;9.07;;;17.10;96.90;;;;;;5079338;28;20052;-89
2022/11/10 12:22:47;;;;;;;11.32;9.20;;;17.10;96.80;;;;;;5093126;28;20087;-89
2022/11/10 12:25:26;;;;;;;11.20;9.30;;;17.20;96.70;;;;;;5084729;28;20026;-95
2022/11/10 12:28:15;;;;;;;10.90;7.07;;;17.00;96.60;;;;;;5075829;28;20024;-95
2022/11/10 12:30:43;;;;;;;10.93;7.20;;;17.20;96.70;;;;;;5063245;28;20056;-90
2022/11/10 12:33:33;;;;;;;9.90;8.02;;;17.20;96.60;;;;;;5086329;28;20092;-92
2022/11/10 12:36:02;;;;;;;8.63;6.68;;;17.20;96.50;;;;;;5095247;28;20030;-91
2022/11/10 12:38:56;;;;;;;8.75;6.28;;;17.30;96.50;;;;;;5096124;28;20048;-94
2022/11/10 12:41:25;;;;;;;7.95;6.07;;;17.40;96.40;;;;;;5094596;28;20043;-93
2022/11/10 12:43:59;;;;;;;7.18;5.68;;;17.60;96.20;;;;;;5096143;28;20469;-93
2022/11/10 12:46:25;;;;;;;6.25;5.28;;;17.70;96.10;;;;;;5082014;28;20532;-92
2022/11/10 12:49:17;;;;;;;8.30;5.57;;;17.80;95.90;;;;;;5079720;28;20055;-93
2022/11/10 12:52:18;;;;;;;7.03;6.00;;;17.80;95.70;;;;;;5090545;28;20028;-92
2022/11/10 12:54:46;;;;;;;6.05;4.85;;;17.70;95.30;;;;;;5095315;28;20032;-96
2022/11/10 12:57:22;;;;;;;5.38;4.50;;;17.60;95.40;;;;;;5094237;28;20527;-91
2022/11/10 13:00:01;;;;;;;6.05;5.43;;;17.60;95.50;;;;;;5070116;28;20028;-91
2022/11/10 13:02:39;;;;;;;4.93;4.38;;;17.60;95.40;;;;;;5088019;28;20020;-96